sensor_id;sensor_type;location;lat;lon;timestamp;P1;durP1;ratioP1;P2;durP2;ratioP2
5245;SDS011;54412;51.206;6.888;2023-06-14T00:01:51;7.03;;;4.27;;
5245;SDS011;54412;51.206;6.888;2023-06-14T00:04:17;8.27;;;4.80;;
5245;SDS011;54412;51.206;6.888;2023-06-14T00:06:44;4.87;;;4.47;;
5245;SDS011;54412;51.206;6.888;2023-06-14T00:09:10;6.03;;;4.50;;
5245;SDS011;54412;51.206;6.888;2023-06-14T00:11:42;6.10;;;3.70;;
5245;SDS011;54412;51.206;6.888;2023-06-14T00:14:08;8.97;;;5.50;;
5245;SDS011;54412;51.206;6.888;2023-06-14T00:16:34;11.03;;;5.03;;
5245;SDS011;54412;51.206;6.888;2023-06-14T00:19:02;9.10;;;4.97;;
5245;SDS011;54412;51.206;6.888;2023-06-14T00:21:31;5.87;;;5.23;;
5245;SDS011;54412;51.206;6.888;2023-06-14T00:24:00;5.90;;;5.40;;
5245;SDS011;54412;51.206;6.888;2023-06-14T00:26:26;7.33;;;4.47;;
5245;SDS011;54412;51.206;6.888;2023-06-14T00:28:52;6.43;;;5.17;;
5245;SDS011;54412;51.206;6.888;2023-06-14T00:31:19;7.57;;;5.37;;
5245;SDS011;54412;51.206;6.888;2023-06-14T00:33:45;6.70;;;5.00;;
5245;SDS011;54412;51.206;6.888;2023-06-14T00:36:11;5.40;;;4.50;;
5245;SDS011;54412;51.206;6.888;2023-06-14T00:38:37;9.60;;;5.07;;
5245;SDS011;54412;51.206;6.888;2023-06-14T00:41:03;8.10;;;5.13;;
5245;SDS011;54412;51.206;6.888;2023-06-14T00:43:29;5.77;;;5.10;;
5245;SDS011;54412;51.206;6.888;2023-06-14T00:45:55;5.20;;;4.70;;
5245;SDS011;54412;51.206;6.888;2023-06-14T00:48:20;5.67;;;5.10;;
5245;SDS011;54412;51.206;6.888;2023-06-14T00:50:47;5.13;;;4.63;;
5245;SDS011;54412;51.206;6.888;2023-06-14T00:53:17;7.30;;;4.40;;
5245;SDS011;54412;51.206;6.888;2023-06-14T00:55:45;8.43;;;4.93;;
5245;SDS011;54412;51.206;6.888;2023-06-14T00:58:12;5.47;;;4.60;;
5245;SDS011;54412;51.206;6.888;2023-06-14T01:00:39;5.33;;;4.83;;
5245;SDS011;54412;51.206;6.888;2023-06-14T01:03:05;7.93;;;5.30;;
5245;SDS011;54412;51.206;6.888;2023-06-14T01:05:31;5.00;;;4.60;;
5245;SDS011;54412;51.206;6.888;2023-06-14T01:08:21;5.40;;;4.90;;
5245;SDS011;54412;51.206;6.888;2023-06-14T01:11:02;7.43;;;5.20;;
5245;SDS011;54412;51.206;6.888;2023-06-14T01:13:39;5.50;;;5.00;;
5245;SDS011;54412;51.206;6.888;2023-06-14T01:16:10;6.20;;;4.40;;
5245;SDS011;54412;51.206;6.888;2023-06-14T01:18:36;5.50;;;4.47;;
5245;SDS011;54412;51.206;6.888;2023-06-14T01:21:03;6.17;;;4.87;;
5245;SDS011;54412;51.206;6.888;2023-06-14T01:23:31;6.17;;;5.57;;
5245;SDS011;54412;51.206;6.888;2023-06-14T01:25:59;6.03;;;4.67;;
5245;SDS011;54412;51.206;6.888;2023-06-14T01:28:28;5.30;;;4.80;;
5245;SDS011;54412;51.206;6.888;2023-06-14T01:30:59;7.80;;;5.87;;
5245;SDS011;54412;51.206;6.888;2023-06-14T01:33:29;7.90;;;5.80;;
5245;SDS011;54412;51.206;6.888;2023-06-14T01:35:58;5.33;;;4.77;;
5245;SDS011;54412;51.206;6.888;2023-06-14T01:38:26;6.53;;;4.53;;
5245;SDS011;54412;51.206;6.888;2023-06-14T01:40:54;9.10;;;5.57;;
5245;SDS011;54412;51.206;6.888;2023-06-14T01:43:23;8.20;;;5.20;;
5245;SDS011;54412;51.206;6.888;2023-06-14T01:45:51;5.43;;;4.93;;
5245;SDS011;54412;51.206;6.888;2023-06-14T01:48:20;5.33;;;4.80;;
5245;SDS011;54412;51.206;6.888;2023-06-14T01:50:47;6.40;;;5.20;;
5245;SDS011;54412;51.206;6.888;2023-06-14T01:53:15;10.30;;;5.60;;
5245;SDS011;54412;51.206;6.888;2023-06-14T01:55:41;10.43;;;4.73;;
5245;SDS011;54412;51.206;6.888;2023-06-14T01:58:08;5.37;;;4.87;;
5245;SDS011;54412;51.206;6.888;2023-06-14T02:00:35;7.07;;;5.90;;
5245;SDS011;54412;51.206;6.888;2023-06-14T02:03:01;12.33;;;4.80;;
5245;SDS011;54412;51.206;6.888;2023-06-14T02:05:29;7.30;;;5.03;;
5245;SDS011;54412;51.206;6.888;2023-06-14T02:07:55;6.30;;;5.70;;
5245;SDS011;54412;51.206;6.888;2023-06-14T02:10:21;8.40;;;5.13;;
5245;SDS011;54412;51.206;6.888;2023-06-14T02:12:47;7.17;;;5.33;;
5245;SDS011;54412;51.206;6.888;2023-06-14T02:15:13;8.70;;;4.80;;
5245;SDS011;54412;51.206;6.888;2023-06-14T02:17:45;5.57;;;4.40;;
5245;SDS011;54412;51.206;6.888;2023-06-14T02:20:17;7.80;;;4.90;;
5245;SDS011;54412;51.206;6.888;2023-06-14T02:22:43;6.00;;;5.10;;
5245;SDS011;54412;51.206;6.888;2023-06-14T02:25:10;7.40;;;5.73;;
5245;SDS011;54412;51.206;6.888;2023-06-14T02:27:36;5.60;;;5.10;;
5245;SDS011;54412;51.206;6.888;2023-06-14T02:30:02;11.60;;;5.23;;
5245;SDS011;54412;51.206;6.888;2023-06-14T02:32:28;8.30;;;5.07;;
5245;SDS011;54412;51.206;6.888;2023-06-14T02:34:54;6.70;;;4.97;;
5245;SDS011;54412;51.206;6.888;2023-06-14T02:37:19;5.33;;;4.73;;
5245;SDS011;54412;51.206;6.888;2023-06-14T02:39:45;12.07;;;5.70;;
5245;SDS011;54412;51.206;6.888;2023-06-14T02:42:11;9.47;;;4.83;;
5245;SDS011;54412;51.206;6.888;2023-06-14T02:44:37;9.03;;;5.07;;
5245;SDS011;54412;51.206;6.888;2023-06-14T02:47:03;6.10;;;5.40;;
5245;SDS011;54412;51.206;6.888;2023-06-14T02:49:30;10.57;;;5.20;;
5245;SDS011;54412;51.206;6.888;2023-06-14T02:51:55;5.10;;;4.60;;
5245;SDS011;54412;51.206;6.888;2023-06-14T02:54:22;10.83;;;5.20;;
5245;SDS011;54412;51.206;6.888;2023-06-14T02:56:47;5.50;;;5.00;;
5245;SDS011;54412;51.206;6.888;2023-06-14T02:59:13;5.50;;;4.67;;
5245;SDS011;54412;51.206;6.888;2023-06-14T03:01:40;6.23;;;4.83;;
5245;SDS011;54412;51.206;6.888;2023-06-14T03:04:06;5.23;;;4.73;;
5245;SDS011;54412;51.206;6.888;2023-06-14T03:06:35;5.13;;;4.60;;
5245;SDS011;54412;51.206;6.888;2023-06-14T03:09:01;14.10;;;4.93;;
5245;SDS011;54412;51.206;6.888;2023-06-14T03:11:30;5.80;;;4.80;;
5245;SDS011;54412;51.206;6.888;2023-06-14T03:13:56;5.33;;;4.30;;
5245;SDS011;54412;51.206;6.888;2023-06-14T03:16:22;7.73;;;5.00;;
5245;SDS011;54412;51.206;6.888;2023-06-14T03:18:52;9.83;;;5.63;;
5245;SDS011;54412;51.206;6.888;2023-06-14T03:21:18;4.90;;;4.50;;
5245;SDS011;54412;51.206;6.888;2023-06-14T03:23:45;4.90;;;4.40;;
5245;SDS011;54412;51.206;6.888;2023-06-14T03:26:12;11.93;;;4.63;;
5245;SDS011;54412;51.206;6.888;2023-06-14T03:28:39;7.53;;;4.53;;
5245;SDS011;54412;51.206;6.888;2023-06-14T03:31:05;5.00;;;4.20;;
5245;SDS011;54412;51.206;6.888;2023-06-14T03:33:31;18.23;;;5.27;;
5245;SDS011;54412;51.206;6.888;2023-06-14T03:35:57;7.87;;;5.10;;
5245;SDS011;54412;51.206;6.888;2023-06-14T03:38:22;9.33;;;5.00;;
5245;SDS011;54412;51.206;6.888;2023-06-14T03:40:48;7.73;;;4.53;;
5245;SDS011;54412;51.206;6.888;2023-06-14T03:43:14;5.77;;;4.83;;
5245;SDS011;54412;51.206;6.888;2023-06-14T03:45:39;5.87;;;4.63;;
5245;SDS011;54412;51.206;6.888;2023-06-14T03:50:38;7.20;;;4.90;;
5245;SDS011;54412;51.206;6.888;2023-06-14T03:53:05;6.93;;;4.90;;
5245;SDS011;54412;51.206;6.888;2023-06-14T03:55:31;9.87;;;4.77;;
5245;SDS011;54412;51.206;6.888;2023-06-14T03:57:58;7.57;;;5.10;;
5245;SDS011;54412;51.206;6.888;2023-06-14T04:00:24;7.43;;;4.67;;
5245;SDS011;54412;51.206;6.888;2023-06-14T04:02:50;5.40;;;4.90;;
5245;SDS011;54412;51.206;6.888;2023-06-14T04:05:16;5.30;;;4.80;;
5245;SDS011;54412;51.206;6.888;2023-06-14T04:07:44;7.20;;;4.60;;
5245;SDS011;54412;51.206;6.888;2023-06-14T04:10:13;5.10;;;4.70;;
5245;SDS011;54412;51.206;6.888;2023-06-14T04:12:41;5.13;;;4.60;;
5245;SDS011;54412;51.206;6.888;2023-06-14T04:15:07;6.97;;;4.87;;
5245;SDS011;54412;51.206;6.888;2023-06-14T04:17:34;9.20;;;4.70;;
5245;SDS011;54412;51.206;6.888;2023-06-14T04:20:03;4.43;;;4.07;;
5245;SDS011;54412;51.206;6.888;2023-06-14T04:22:31;7.93;;;4.93;;
5245;SDS011;54412;51.206;6.888;2023-06-14T04:24:57;7.47;;;4.60;;
5245;SDS011;54412;51.206;6.888;2023-06-14T04:27:24;8.83;;;4.93;;
5245;SDS011;54412;51.206;6.888;2023-06-14T04:29:52;4.93;;;4.33;;
5245;SDS011;54412;51.206;6.888;2023-06-14T04:32:24;7.47;;;4.13;;
5245;SDS011;54412;51.206;6.888;2023-06-14T04:34:52;6.70;;;4.30;;
5245;SDS011;54412;51.206;6.888;2023-06-14T04:37:19;6.20;;;4.40;;
5245;SDS011;54412;51.206;6.888;2023-06-14T04:39:48;4.80;;;4.40;;
5245;SDS011;54412;51.206;6.888;2023-06-14T04:42:15;9.80;;;4.53;;
5245;SDS011;54412;51.206;6.888;2023-06-14T04:44:41;7.63;;;3.93;;
5245;SDS011;54412;51.206;6.888;2023-06-14T04:47:08;4.30;;;3.90;;
5245;SDS011;54412;51.206;6.888;2023-06-14T04:49:36;4.43;;;4.00;;
5245;SDS011;54412;51.206;6.888;2023-06-14T04:52:01;6.97;;;3.93;;
5245;SDS011;54412;51.206;6.888;2023-06-14T04:54:27;6.60;;;4.33;;
5245;SDS011;54412;51.206;6.888;2023-06-14T04:56:56;4.90;;;3.90;;
5245;SDS011;54412;51.206;6.888;2023-06-14T04:59:22;7.90;;;5.43;;
5245;SDS011;54412;51.206;6.888;2023-06-14T05:01:48;5.30;;;4.40;;
5245;SDS011;54412;51.206;6.888;2023-06-14T05:04:15;8.20;;;4.20;;
5245;SDS011;54412;51.206;6.888;2023-06-14T05:06:42;4.60;;;4.17;;
5245;SDS011;54412;51.206;6.888;2023-06-14T05:09:13;7.40;;;4.30;;
5245;SDS011;54412;51.206;6.888;2023-06-14T05:11:41;6.97;;;4.57;;
5245;SDS011;54412;51.206;6.888;2023-06-14T05:14:12;9.47;;;4.27;;
5245;SDS011;54412;51.206;6.888;2023-06-14T05:16:39;8.63;;;4.30;;
5245;SDS011;54412;51.206;6.888;2023-06-14T05:19:05;11.30;;;4.47;;
5245;SDS011;54412;51.206;6.888;2023-06-14T05:21:31;4.97;;;4.07;;
5245;SDS011;54412;51.206;6.888;2023-06-14T05:23:59;4.63;;;4.00;;
5245;SDS011;54412;51.206;6.888;2023-06-14T05:26:25;6.47;;;4.30;;
5245;SDS011;54412;51.206;6.888;2023-06-14T05:28:57;6.00;;;4.40;;
5245;SDS011;54412;51.206;6.888;2023-06-14T05:31:25;5.97;;;3.93;;
5245;SDS011;54412;51.206;6.888;2023-06-14T05:33:51;7.03;;;4.20;;
5245;SDS011;54412;51.206;6.888;2023-06-14T05:36:17;5.47;;;4.30;;
5245;SDS011;54412;51.206;6.888;2023-06-14T05:38:45;13.97;;;4.10;;
5245;SDS011;54412;51.206;6.888;2023-06-14T05:41:10;6.13;;;4.00;;
5245;SDS011;54412;51.206;6.888;2023-06-14T05:43:36;5.67;;;4.50;;
5245;SDS011;54412;51.206;6.888;2023-06-14T05:46:02;6.10;;;4.30;;
5245;SDS011;54412;51.206;6.888;2023-06-14T05:48:29;4.70;;;3.87;;
5245;SDS011;54412;51.206;6.888;2023-06-14T05:50:56;6.20;;;3.97;;
5245;SDS011;54412;51.206;6.888;2023-06-14T05:53:21;7.00;;;4.17;;
5245;SDS011;54412;51.206;6.888;2023-06-14T05:55:47;5.80;;;3.73;;
5245;SDS011;54412;51.206;6.888;2023-06-14T05:58:16;3.60;;;3.30;;
5245;SDS011;54412;51.206;6.888;2023-06-14T06:00:42;11.47;;;3.70;;
5245;SDS011;54412;51.206;6.888;2023-06-14T06:03:08;10.67;;;4.20;;
5245;SDS011;54412;51.206;6.888;2023-06-14T06:05:34;3.80;;;3.50;;
5245;SDS011;54412;51.206;6.888;2023-06-14T06:07:59;8.03;;;3.83;;
5245;SDS011;54412;51.206;6.888;2023-06-14T06:10:25;15.67;;;4.00;;
5245;SDS011;54412;51.206;6.888;2023-06-14T06:12:51;13.30;;;4.00;;
5245;SDS011;54412;51.206;6.888;2023-06-14T06:15:19;5.67;;;3.60;;
5245;SDS011;54412;51.206;6.888;2023-06-14T06:17:45;5.03;;;3.00;;
5245;SDS011;54412;51.206;6.888;2023-06-14T06:20:11;14.70;;;3.03;;
5245;SDS011;54412;51.206;6.888;2023-06-14T06:22:38;9.13;;;3.50;;
5245;SDS011;54412;51.206;6.888;2023-06-14T06:25:04;6.60;;;3.70;;
5245;SDS011;54412;51.206;6.888;2023-06-14T06:27:31;8.87;;;3.60;;
5245;SDS011;54412;51.206;6.888;2023-06-14T06:29:57;6.23;;;3.77;;
5245;SDS011;54412;51.206;6.888;2023-06-14T06:32:23;4.60;;;3.10;;
5245;SDS011;54412;51.206;6.888;2023-06-14T06:34:49;7.50;;;3.30;;
5245;SDS011;54412;51.206;6.888;2023-06-14T06:37:15;13.43;;;3.40;;
5245;SDS011;54412;51.206;6.888;2023-06-14T06:39:41;5.10;;;3.20;;
5245;SDS011;54412;51.206;6.888;2023-06-14T06:42:06;4.53;;;3.33;;
5245;SDS011;54412;51.206;6.888;2023-06-14T06:44:32;4.90;;;3.37;;
5245;SDS011;54412;51.206;6.888;2023-06-14T06:46:59;2.90;;;2.70;;
5245;SDS011;54412;51.206;6.888;2023-06-14T06:49:25;4.57;;;2.80;;
5245;SDS011;54412;51.206;6.888;2023-06-14T06:52:00;6.40;;;2.67;;
5245;SDS011;54412;51.206;6.888;2023-06-14T06:54:31;10.13;;;3.20;;
5245;SDS011;54412;51.206;6.888;2023-06-14T06:56:57;9.73;;;2.43;;
5245;SDS011;54412;51.206;6.888;2023-06-14T06:59:24;2.60;;;2.40;;
5245;SDS011;54412;51.206;6.888;2023-06-14T07:01:50;5.40;;;2.30;;
5245;SDS011;54412;51.206;6.888;2023-06-14T07:04:15;7.90;;;1.70;;
5245;SDS011;54412;51.206;6.888;2023-06-14T07:06:41;14.70;;;2.03;;
5245;SDS011;54412;51.206;6.888;2023-06-14T07:09:08;2.73;;;2.33;;
5245;SDS011;54412;51.206;6.888;2023-06-14T07:11:38;4.83;;;2.10;;
5245;SDS011;54412;51.206;6.888;2023-06-14T07:14:04;5.00;;;2.20;;
5245;SDS011;54412;51.206;6.888;2023-06-14T07:16:31;4.47;;;2.10;;
5245;SDS011;54412;51.206;6.888;2023-06-14T07:18:57;2.83;;;2.63;;
5245;SDS011;54412;51.206;6.888;2023-06-14T07:21:22;3.20;;;2.20;;
5245;SDS011;54412;51.206;6.888;2023-06-14T07:23:50;9.53;;;2.50;;
5245;SDS011;54412;51.206;6.888;2023-06-14T07:26:17;5.30;;;2.20;;
5245;SDS011;54412;51.206;6.888;2023-06-14T07:28:43;3.97;;;2.80;;
5245;SDS011;54412;51.206;6.888;2023-06-14T07:31:11;6.70;;;3.17;;
5245;SDS011;54412;51.206;6.888;2023-06-14T07:33:38;3.60;;;2.00;;
5245;SDS011;54412;51.206;6.888;2023-06-14T07:36:06;5.00;;;2.50;;
5245;SDS011;54412;51.206;6.888;2023-06-14T07:38:32;7.93;;;2.03;;
5245;SDS011;54412;51.206;6.888;2023-06-14T07:40:57;3.90;;;1.70;;
5245;SDS011;54412;51.206;6.888;2023-06-14T07:43:23;7.00;;;2.50;;
5245;SDS011;54412;51.206;6.888;2023-06-14T07:45:49;2.23;;;2.03;;
5245;SDS011;54412;51.206;6.888;2023-06-14T07:48:14;5.53;;;2.20;;
5245;SDS011;54412;51.206;6.888;2023-06-14T07:50:40;6.50;;;1.90;;
5245;SDS011;54412;51.206;6.888;2023-06-14T07:53:06;5.93;;;2.13;;
5245;SDS011;54412;51.206;6.888;2023-06-14T07:55:31;4.43;;;2.30;;
5245;SDS011;54412;51.206;6.888;2023-06-14T07:57:58;4.43;;;2.67;;
5245;SDS011;54412;51.206;6.888;2023-06-14T08:00:24;11.23;;;2.23;;
5245;SDS011;54412;51.206;6.888;2023-06-14T08:02:49;5.23;;;2.50;;
5245;SDS011;54412;51.206;6.888;2023-06-14T08:05:17;16.30;;;2.60;;
5245;SDS011;54412;51.206;6.888;2023-06-14T08:07:42;2.80;;;2.13;;
5245;SDS011;54412;51.206;6.888;2023-06-14T08:10:08;3.03;;;1.73;;
5245;SDS011;54412;51.206;6.888;2023-06-14T08:12:34;2.00;;;1.90;;
5245;SDS011;54412;51.206;6.888;2023-06-14T08:15:01;2.13;;;2.00;;
5245;SDS011;54412;51.206;6.888;2023-06-14T08:17:27;3.40;;;2.43;;
5245;SDS011;54412;51.206;6.888;2023-06-14T08:19:53;3.23;;;1.70;;
5245;SDS011;54412;51.206;6.888;2023-06-14T08:22:22;3.40;;;1.93;;
5245;SDS011;54412;51.206;6.888;2023-06-14T08:24:49;9.03;;;2.20;;
5245;SDS011;54412;51.206;6.888;2023-06-14T08:27:15;3.50;;;1.80;;
5245;SDS011;54412;51.206;6.888;2023-06-14T08:29:41;7.63;;;2.10;;
5245;SDS011;54412;51.206;6.888;2023-06-14T08:32:07;1.90;;;1.80;;
5245;SDS011;54412;51.206;6.888;2023-06-14T08:34:33;2.53;;;1.77;;
5245;SDS011;54412;51.206;6.888;2023-06-14T08:36:58;6.53;;;1.97;;
5245;SDS011;54412;51.206;6.888;2023-06-14T08:39:24;2.00;;;1.80;;
5245;SDS011;54412;51.206;6.888;2023-06-14T08:41:50;3.23;;;1.57;;
5245;SDS011;54412;51.206;6.888;2023-06-14T08:44:17;1.60;;;1.50;;
5245;SDS011;54412;51.206;6.888;2023-06-14T08:46:43;1.83;;;1.50;;
5245;SDS011;54412;51.206;6.888;2023-06-14T08:49:11;1.90;;;1.80;;
5245;SDS011;54412;51.206;6.888;2023-06-14T08:51:37;2.93;;;1.53;;
5245;SDS011;54412;51.206;6.888;2023-06-14T08:54:05;3.30;;;1.83;;
5245;SDS011;54412;51.206;6.888;2023-06-14T08:56:31;1.93;;;1.80;;
5245;SDS011;54412;51.206;6.888;2023-06-14T08:58:59;2.27;;;1.37;;
5245;SDS011;54412;51.206;6.888;2023-06-14T09:01:34;2.83;;;1.90;;
5245;SDS011;54412;51.206;6.888;2023-06-14T09:04:02;5.70;;;2.10;;
5245;SDS011;54412;51.206;6.888;2023-06-14T09:06:30;1.70;;;1.60;;
5245;SDS011;54412;51.206;6.888;2023-06-14T09:08:56;2.07;;;1.97;;
5245;SDS011;54412;51.206;6.888;2023-06-14T09:11:22;7.20;;;1.60;;
5245;SDS011;54412;51.206;6.888;2023-06-14T09:13:51;2.50;;;1.90;;
5245;SDS011;54412;51.206;6.888;2023-06-14T09:16:16;1.93;;;1.70;;
5245;SDS011;54412;51.206;6.888;2023-06-14T09:18:43;3.20;;;1.73;;
5245;SDS011;54412;51.206;6.888;2023-06-14T09:21:13;10.70;;;1.73;;
5245;SDS011;54412;51.206;6.888;2023-06-14T09:23:44;3.13;;;1.40;;
5245;SDS011;54412;51.206;6.888;2023-06-14T09:26:12;7.93;;;2.00;;
5245;SDS011;54412;51.206;6.888;2023-06-14T09:28:41;10.13;;;1.67;;
5245;SDS011;54412;51.206;6.888;2023-06-14T09:31:10;1.80;;;1.50;;
5245;SDS011;54412;51.206;6.888;2023-06-14T09:33:44;1.80;;;1.70;;
5245;SDS011;54412;51.206;6.888;2023-06-14T09:36:15;1.60;;;1.50;;
5245;SDS011;54412;51.206;6.888;2023-06-14T09:38:53;2.20;;;1.43;;
5245;SDS011;54412;51.206;6.888;2023-06-14T09:41:33;1.80;;;1.40;;
5245;SDS011;54412;51.206;6.888;2023-06-14T09:44:05;4.50;;;1.20;;
5245;SDS011;54412;51.206;6.888;2023-06-14T09:46:33;3.17;;;1.77;;
5245;SDS011;54412;51.206;6.888;2023-06-14T09:49:00;1.87;;;1.50;;
5245;SDS011;54412;51.206;6.888;2023-06-14T09:51:28;1.80;;;1.50;;
5245;SDS011;54412;51.206;6.888;2023-06-14T09:54:01;1.50;;;1.40;;
5245;SDS011;54412;51.206;6.888;2023-06-14T09:56:31;1.80;;;1.70;;
5245;SDS011;54412;51.206;6.888;2023-06-14T09:59:02;3.00;;;1.70;;
5245;SDS011;54412;51.206;6.888;2023-06-14T10:01:34;4.13;;;1.30;;
5245;SDS011;54412;51.206;6.888;2023-06-14T10:04:10;3.67;;;1.30;;
5245;SDS011;54412;51.206;6.888;2023-06-14T10:06:36;2.63;;;1.57;;
5245;SDS011;54412;51.206;6.888;2023-06-14T10:09:09;1.50;;;1.40;;
5245;SDS011;54412;51.206;6.888;2023-06-14T10:11:36;3.40;;;1.50;;
5245;SDS011;54412;51.206;6.888;2023-06-14T10:14:05;1.30;;;1.10;;
5245;SDS011;54412;51.206;6.888;2023-06-14T10:16:34;13.67;;;1.70;;
5245;SDS011;54412;51.206;6.888;2023-06-14T10:22:01;1.73;;;1.27;;
5245;SDS011;54412;51.206;6.888;2023-06-14T10:24:42;2.17;;;1.70;;
5245;SDS011;54412;51.206;6.888;2023-06-14T10:27:09;1.50;;;1.40;;
5245;SDS011;54412;51.206;6.888;2023-06-14T10:32:20;1.40;;;1.30;;
5245;SDS011;54412;51.206;6.888;2023-06-14T10:35:01;1.53;;;1.43;;
5245;SDS011;54412;51.206;6.888;2023-06-14T10:37:32;3.23;;;1.80;;
5245;SDS011;54412;51.206;6.888;2023-06-14T10:39:58;5.37;;;1.93;;
5245;SDS011;54412;51.206;6.888;2023-06-14T10:42:27;2.50;;;1.63;;
5245;SDS011;54412;51.206;6.888;2023-06-14T10:44:58;4.10;;;1.53;;
5245;SDS011;54412;51.206;6.888;2023-06-14T10:49:54;3.83;;;1.40;;
5245;SDS011;54412;51.206;6.888;2023-06-14T10:52:39;4.37;;;1.80;;
5245;SDS011;54412;51.206;6.888;2023-06-14T10:55:08;1.90;;;1.80;;
5245;SDS011;54412;51.206;6.888;2023-06-14T10:57:51;2.30;;;1.87;;
5245;SDS011;54412;51.206;6.888;2023-06-14T11:00:24;4.07;;;3.67;;
5245;SDS011;54412;51.206;6.888;2023-06-14T11:06:12;1.93;;;1.73;;
5245;SDS011;54412;51.206;6.888;2023-06-14T11:11:39;2.73;;;1.60;;
5245;SDS011;54412;51.206;6.888;2023-06-14T11:14:08;3.50;;;1.57;;
5245;SDS011;54412;51.206;6.888;2023-06-14T11:16:35;1.60;;;1.50;;
5245;SDS011;54412;51.206;6.888;2023-06-14T11:19:01;1.53;;;1.43;;
5245;SDS011;54412;51.206;6.888;2023-06-14T11:21:32;1.70;;;1.60;;
5245;SDS011;54412;51.206;6.888;2023-06-14T11:23:58;5.00;;;1.60;;
5245;SDS011;54412;51.206;6.888;2023-06-14T11:26:30;7.10;;;1.53;;
5245;SDS011;54412;51.206;6.888;2023-06-14T11:28:58;1.57;;;1.47;;
5245;SDS011;54412;51.206;6.888;2023-06-14T11:31:26;2.57;;;1.57;;
5245;SDS011;54412;51.206;6.888;2023-06-14T11:33:53;4.50;;;1.40;;
5245;SDS011;54412;51.206;6.888;2023-06-14T11:36:21;1.60;;;1.50;;
5245;SDS011;54412;51.206;6.888;2023-06-14T11:38:48;1.80;;;1.70;;
5245;SDS011;54412;51.206;6.888;2023-06-14T11:41:15;1.53;;;1.40;;
5245;SDS011;54412;51.206;6.888;2023-06-14T11:43:41;3.00;;;1.60;;
5245;SDS011;54412;51.206;6.888;2023-06-14T11:46:12;2.57;;;1.60;;
5245;SDS011;54412;51.206;6.888;2023-06-14T11:48:41;2.73;;;1.57;;
5245;SDS011;54412;51.206;6.888;2023-06-14T11:51:08;2.87;;;1.43;;
5245;SDS011;54412;51.206;6.888;2023-06-14T11:53:34;2.50;;;1.10;;
5245;SDS011;54412;51.206;6.888;2023-06-14T11:56:00;1.50;;;1.40;;
5245;SDS011;54412;51.206;6.888;2023-06-14T11:58:28;7.13;;;1.27;;
5245;SDS011;54412;51.206;6.888;2023-06-14T12:00:55;1.63;;;1.53;;
5245;SDS011;54412;51.206;6.888;2023-06-14T12:03:24;2.20;;;1.57;;
5245;SDS011;54412;51.206;6.888;2023-06-14T12:06:01;3.53;;;1.30;;
5245;SDS011;54412;51.206;6.888;2023-06-14T12:08:36;1.47;;;1.37;;
5245;SDS011;54412;51.206;6.888;2023-06-14T12:11:15;3.57;;;1.20;;
5245;SDS011;54412;51.206;6.888;2023-06-14T12:13:41;3.30;;;1.67;;
5245;SDS011;54412;51.206;6.888;2023-06-14T12:16:11;1.80;;;0.87;;
5245;SDS011;54412;51.206;6.888;2023-06-14T12:18:38;1.30;;;1.20;;
5245;SDS011;54412;51.206;6.888;2023-06-14T12:21:06;2.33;;;1.33;;
5245;SDS011;54412;51.206;6.888;2023-06-14T12:23:40;2.43;;;0.90;;
5245;SDS011;54412;51.206;6.888;2023-06-14T12:26:12;3.67;;;1.50;;
5245;SDS011;54412;51.206;6.888;2023-06-14T12:28:51;1.70;;;1.40;;
5245;SDS011;54412;51.206;6.888;2023-06-14T12:31:17;2.50;;;1.17;;
5245;SDS011;54412;51.206;6.888;2023-06-14T12:33:44;2.70;;;1.50;;
5245;SDS011;54412;51.206;6.888;2023-06-14T12:36:13;2.20;;;1.10;;
5245;SDS011;54412;51.206;6.888;2023-06-14T12:38:40;1.40;;;1.30;;
5245;SDS011;54412;51.206;6.888;2023-06-14T12:41:06;3.50;;;1.37;;
5245;SDS011;54412;51.206;6.888;2023-06-14T12:43:32;2.40;;;1.40;;
5245;SDS011;54412;51.206;6.888;2023-06-14T12:45:59;2.13;;;1.37;;
5245;SDS011;54412;51.206;6.888;2023-06-14T12:48:25;1.47;;;1.37;;
5245;SDS011;54412;51.206;6.888;2023-06-14T12:50:56;1.67;;;1.23;;
5245;SDS011;54412;51.206;6.888;2023-06-14T12:53:22;1.67;;;1.20;;
5245;SDS011;54412;51.206;6.888;2023-06-14T12:55:48;3.17;;;1.10;;
5245;SDS011;54412;51.206;6.888;2023-06-14T12:58:14;1.80;;;1.40;;
5245;SDS011;54412;51.206;6.888;2023-06-14T13:00:42;2.00;;;1.00;;
5245;SDS011;54412;51.206;6.888;2023-06-14T13:03:09;2.93;;;1.10;;
5245;SDS011;54412;51.206;6.888;2023-06-14T13:05:35;2.20;;;1.63;;
5245;SDS011;54412;51.206;6.888;2023-06-14T13:08:02;4.03;;;1.13;;
5245;SDS011;54412;51.206;6.888;2023-06-14T13:10:28;3.07;;;1.40;;
5245;SDS011;54412;51.206;6.888;2023-06-14T13:12:54;2.93;;;1.30;;
5245;SDS011;54412;51.206;6.888;2023-06-14T13:15:19;1.50;;;1.33;;
5245;SDS011;54412;51.206;6.888;2023-06-14T13:17:45;1.67;;;1.57;;
5245;SDS011;54412;51.206;6.888;2023-06-14T13:20:13;1.83;;;1.50;;
5245;SDS011;54412;51.206;6.888;2023-06-14T13:22:41;3.07;;;1.57;;
5245;SDS011;54412;51.206;6.888;2023-06-14T13:25:06;2.10;;;1.43;;
5245;SDS011;54412;51.206;6.888;2023-06-14T13:27:32;2.10;;;1.90;;
5245;SDS011;54412;51.206;6.888;2023-06-14T13:29:58;5.73;;;1.67;;
5245;SDS011;54412;51.206;6.888;2023-06-14T13:32:24;3.67;;;1.73;;
5245;SDS011;54412;51.206;6.888;2023-06-14T13:34:50;4.63;;;1.57;;
5245;SDS011;54412;51.206;6.888;2023-06-14T13:37:16;1.47;;;1.40;;
5245;SDS011;54412;51.206;6.888;2023-06-14T13:39:42;1.60;;;1.40;;
5245;SDS011;54412;51.206;6.888;2023-06-14T13:42:07;1.40;;;1.30;;
5245;SDS011;54412;51.206;6.888;2023-06-14T13:44:33;1.43;;;1.30;;
5245;SDS011;54412;51.206;6.888;2023-06-14T13:46:59;2.53;;;1.93;;
5245;SDS011;54412;51.206;6.888;2023-06-14T13:49:25;8.03;;;1.40;;
5245;SDS011;54412;51.206;6.888;2023-06-14T13:51:51;5.77;;;1.63;;
5245;SDS011;54412;51.206;6.888;2023-06-14T13:54:17;1.60;;;1.50;;
5245;SDS011;54412;51.206;6.888;2023-06-14T13:56:46;2.20;;;1.50;;
5245;SDS011;54412;51.206;6.888;2023-06-14T13:59:12;1.50;;;1.40;;
5245;SDS011;54412;51.206;6.888;2023-06-14T14:01:38;4.20;;;2.00;;
5245;SDS011;54412;51.206;6.888;2023-06-14T14:04:04;2.90;;;1.80;;
5245;SDS011;54412;51.206;6.888;2023-06-14T14:06:30;7.57;;;2.17;;
5245;SDS011;54412;51.206;6.888;2023-06-14T14:08:57;2.30;;;1.43;;
5245;SDS011;54412;51.206;6.888;2023-06-14T14:11:22;1.37;;;1.37;;
5245;SDS011;54412;51.206;6.888;2023-06-14T14:13:48;1.90;;;1.53;;
5245;SDS011;54412;51.206;6.888;2023-06-14T14:16:14;2.50;;;1.60;;
5245;SDS011;54412;51.206;6.888;2023-06-14T14:18:40;1.83;;;1.73;;
5245;SDS011;54412;51.206;6.888;2023-06-14T14:21:06;2.77;;;2.10;;
5245;SDS011;54412;51.206;6.888;2023-06-14T14:23:32;3.23;;;1.50;;
5245;SDS011;54412;51.206;6.888;2023-06-14T14:25:58;1.77;;;1.77;;
5245;SDS011;54412;51.206;6.888;2023-06-14T14:28:25;1.90;;;1.80;;
5245;SDS011;54412;51.206;6.888;2023-06-14T14:30:51;3.30;;;1.60;;
5245;SDS011;54412;51.206;6.888;2023-06-14T14:33:18;1.50;;;1.40;;
5245;SDS011;54412;51.206;6.888;2023-06-14T14:35:44;2.47;;;1.97;;
5245;SDS011;54412;51.206;6.888;2023-06-14T14:38:11;1.97;;;1.77;;
5245;SDS011;54412;51.206;6.888;2023-06-14T14:40:39;1.80;;;1.70;;
5245;SDS011;54412;51.206;6.888;2023-06-14T14:43:05;3.10;;;1.80;;
5245;SDS011;54412;51.206;6.888;2023-06-14T14:45:31;1.87;;;1.60;;
5245;SDS011;54412;51.206;6.888;2023-06-14T14:47:57;2.00;;;1.77;;
5245;SDS011;54412;51.206;6.888;2023-06-14T14:50:23;1.93;;;1.60;;
5245;SDS011;54412;51.206;6.888;2023-06-14T14:52:50;1.70;;;1.40;;
5245;SDS011;54412;51.206;6.888;2023-06-14T14:55:16;6.87;;;1.90;;
5245;SDS011;54412;51.206;6.888;2023-06-14T14:57:41;2.90;;;1.97;;
5245;SDS011;54412;51.206;6.888;2023-06-14T15:00:08;2.10;;;1.97;;
5245;SDS011;54412;51.206;6.888;2023-06-14T15:02:35;2.00;;;1.77;;
5245;SDS011;54412;51.206;6.888;2023-06-14T15:05:00;2.03;;;1.83;;
5245;SDS011;54412;51.206;6.888;2023-06-14T15:07:27;3.57;;;1.90;;
5245;SDS011;54412;51.206;6.888;2023-06-14T15:09:54;7.23;;;1.73;;
5245;SDS011;54412;51.206;6.888;2023-06-14T15:12:20;4.03;;;1.50;;
5245;SDS011;54412;51.206;6.888;2023-06-14T15:14:49;4.43;;;1.60;;
5245;SDS011;54412;51.206;6.888;2023-06-14T15:17:16;5.43;;;1.90;;
5245;SDS011;54412;51.206;6.888;2023-06-14T15:19:42;1.80;;;1.30;;